Bluefield, West Virginia
Current Conditions -  °F | °C
As of 11:52 AM on Friday 19 Dec 2014 (Local Time) from KBLF Reporting Station
Few Clouds Few Clouds  
Wind Chill:   Ceiling: Unl
Heat Index:   Visibility: 10mi
Dew Point: -6°   Wind: 0mph
Humidity: 64%   Direction: NA
Pressure: 30.13"   Gusts: NA
Location:  37.27°N, 81.22°W
Report Text: KBLF 191652Z AUTO 00000KT 10SM FEW018 01/M06 A3013 RMK AO2 SLP219 T00061056
Loading
Personal Weather Stations






























Interactive Weather Map New forecast layout! Learn more

10-Day Weather Forecast

Advertisements
Track Severe Weather on mobile